createdAt,value
2018-07-03T00:00:23.340Z,50.34
2018-07-03T00:02:16.330Z,49.77
2018-07-03T00:03:16.285Z,50.05
2018-07-03T00:05:09.240Z,50.05
2018-07-03T00:06:09.210Z,51.02
2018-07-03T00:08:02.148Z,51.57
2018-07-03T00:09:02.086Z,51.47
2018-07-03T00:10:55.055Z,51.95
2018-07-03T00:11:55.018Z,52.05
2018-07-03T00:13:48.008Z,52.24
2018-07-03T00:14:47.963Z,52.24
2018-07-03T00:16:41.147Z,52.81
2018-07-03T00:17:41.082Z,52.05
2018-07-03T00:19:34.049Z,53.01
2018-07-03T00:20:34.013Z,52.91
2018-07-03T00:22:26.985Z,53.01
2018-07-03T00:23:26.933Z,53.39
2018-07-03T00:25:20.060Z,54.06
2018-07-03T00:26:20.034Z,53.87
2018-07-03T00:28:13.005Z,54.23
2018-07-03T00:29:12.950Z,54.23
2018-07-03T00:31:05.765Z,55.10
2018-07-03T00:32:05.730Z,54.61
2018-07-03T00:33:58.848Z,54.71
2018-07-03T00:34:58.805Z,54.61
2018-07-03T00:36:51.764Z,55.10
2018-07-03T00:37:51.730Z,55.67
2018-07-03T00:39:44.701Z,55.67
2018-07-03T00:40:44.650Z,56.44
2018-07-03T00:42:37.726Z,56.44
2018-07-03T00:43:37.695Z,56.82
2018-07-03T00:45:30.669Z,57.50
2018-07-03T00:46:30.621Z,57.68
2018-07-03T00:48:23.601Z,57.88
2018-07-03T00:49:23.556Z,58.04
2018-07-03T00:51:16.380Z,58.17
2018-07-03T00:52:16.347Z,58.71
2018-07-03T00:54:09.222Z,59.38
2018-07-03T00:55:09.122Z,59.96
2018-07-03T00:57:02.081Z,59.96
2018-07-03T00:58:02.051Z,60.44
2018-07-03T00:59:55.017Z,59.86
2018-07-03T01:00:54.967Z,60.05
2018-07-03T01:02:48.032Z,59.86
2018-07-03T01:03:47.911Z,60.35
2018-07-03T01:05:40.738Z,60.89
2018-07-03T01:06:40.675Z,61.27
2018-07-03T01:08:33.513Z,60.70
2018-07-03T01:09:33.459Z,61.08
2018-07-03T01:11:26.292Z,61.46
2018-07-03T01:12:26.240Z,61.94
2018-07-03T01:14:19.208Z,62.33
2018-07-03T01:15:19.165Z,62.52
2018-07-03T01:17:12.197Z,62.62
2018-07-03T01:18:12.133Z,62.33
2018-07-03T01:20:05.111Z,62.81
2018-07-03T01:21:05.062Z,62.96
2018-07-03T01:22:58.043Z,63.35
2018-07-03T01:23:58.016Z,63.54
2018-07-03T01:25:51.037Z,63.45
2018-07-03T01:26:50.854Z,64.02
2018-07-03T01:28:43.806Z,64.12
2018-07-03T01:29:43.782Z,63.80
2018-07-03T01:31:36.613Z,63.80
2018-07-03T01:32:36.563Z,63.80
2018-07-03T01:34:29.368Z,64.56
2018-07-03T01:35:29.329Z,64.95
2018-07-03T01:37:22.570Z,65.52
2018-07-03T01:38:22.513Z,65.42
2018-07-03T01:40:15.495Z,65.42
2018-07-03T01:41:15.442Z,65.52
2018-07-03T01:43:08.397Z,65.23
2018-07-03T01:44:08.355Z,65.81
2018-07-03T01:46:01.192Z,65.71
2018-07-03T01:47:01.137Z,65.88
2018-07-03T01:48:54.091Z,66.54
2018-07-03T01:49:54.072Z,66.54
2018-07-03T01:51:46.902Z,66.54
2018-07-03T01:52:46.847Z,67.41
2018-07-03T01:54:39.807Z,68.36
2018-07-03T01:55:39.778Z,68.36
2018-07-03T01:57:32.672Z,68.36
2018-07-03T01:58:32.612Z,68.36
2018-07-03T02:00:25.572Z,67.88
2018-07-03T02:01:25.532Z,68.36
2018-07-03T02:03:18.369Z,68.46
2018-07-03T02:04:18.322Z,68.62
2018-07-03T02:06:11.288Z,69.32
2018-07-03T02:07:11.248Z,69.38
2018-07-03T02:09:04.147Z,68.90
2018-07-03T02:10:04.098Z,69.19
2018-07-03T02:11:56.939Z,69.09
2018-07-03T02:12:56.881Z,69.00
2018-07-03T02:14:49.837Z,69.19
2018-07-03T02:15:49.798Z,69.19
2018-07-03T02:17:42.769Z,69.09
2018-07-03T02:18:42.719Z,69.19
2018-07-03T02:20:35.824Z,69.19
2018-07-03T02:21:35.788Z,69.09
2018-07-03T02:23:28.758Z,69.09
2018-07-03T02:24:28.719Z,69.29
2018-07-03T02:26:21.698Z,69.48
2018-07-03T02:27:21.638Z,69.09
2018-07-03T02:29:14.502Z,69.19
2018-07-03T02:30:14.454Z,69.48
2018-07-03T02:32:07.273Z,69.29
2018-07-03T02:33:07.229Z,69.38
2018-07-03T02:35:00.198Z,69.95
2018-07-03T02:36:00.154Z,69.86
2018-07-03T02:37:53.200Z,69.76
2018-07-03T02:38:53.172Z,70.05
2018-07-03T02:40:46.009Z,70.05
2018-07-03T02:41:45.953Z,69.86
2018-07-03T02:43:38.936Z,69.86
2018-07-03T02:44:38.880Z,70.15
2018-07-03T02:46:31.703Z,69.86
2018-07-03T02:47:31.666Z,69.95
2018-07-03T02:49:24.645Z,70.24
2018-07-03T02:50:24.583Z,70.81
2018-07-03T02:52:17.444Z,70.81
2018-07-03T02:53:17.411Z,70.34
2018-07-03T02:55:11.389Z,71.01
2018-07-03T02:56:11.343Z,70.62
2018-07-03T02:58:04.312Z,70.91
2018-07-03T02:59:04.294Z,70.91
2018-07-03T03:00:57.500Z,71.48
2018-07-03T03:01:57.359Z,71.30
2018-07-03T03:03:50.317Z,71.58
2018-07-03T03:04:50.288Z,71.58
2018-07-03T03:06:43.309Z,71.45
2018-07-03T03:07:43.249Z,71.36
2018-07-03T03:09:36.084Z,71.64
2018-07-03T03:10:36.027Z,72.22
2018-07-03T03:12:29.004Z,72.22
2018-07-03T03:13:28.976Z,72.50
2018-07-03T03:15:21.947Z,72.79
2018-07-03T03:16:21.909Z,73.36
2018-07-03T03:18:14.867Z,73.27
2018-07-03T03:19:14.839Z,73.36
2018-07-03T03:21:07.672Z,73.17
2018-07-03T03:22:07.621Z,73.52
2018-07-03T03:24:00.593Z,73.23
2018-07-03T03:25:00.563Z,73.61
2018-07-03T03:26:53.500Z,73.71
2018-07-03T03:27:53.466Z,73.52
2018-07-03T03:29:46.287Z,73.71
2018-07-03T03:30:46.243Z,73.80
2018-07-03T03:32:39.092Z,73.80
2018-07-03T03:33:39.038Z,73.71
2018-07-03T03:35:32.057Z,73.90
2018-07-03T03:36:31.998Z,73.61
2018-07-03T03:38:24.960Z,74.38
2018-07-03T03:39:24.938Z,74.19
2018-07-03T03:41:17.759Z,74.66
2018-07-03T03:42:17.708Z,74.76
2018-07-03T03:44:10.616Z,74.76
2018-07-03T03:45:10.567Z,74.19
2018-07-03T03:47:03.545Z,74.66
2018-07-03T03:48:03.482Z,74.76
2018-07-03T03:49:57.437Z,74.95
2018-07-03T03:50:57.461Z,75.24
2018-07-03T03:52:50.631Z,75.24
2018-07-03T03:53:50.483Z,75.14
2018-07-03T03:55:43.443Z,74.91
2018-07-03T03:56:43.393Z,75.34
2018-07-03T03:58:36.367Z,74.95
2018-07-03T03:59:36.329Z,75.01
2018-07-03T04:01:29.477Z,74.91
2018-07-03T04:02:29.393Z,75.20
2018-07-03T04:04:22.350Z,75.05
2018-07-03T04:05:22.301Z,75.05
2018-07-03T04:07:15.268Z,75.43
2018-07-03T04:08:15.228Z,75.81
2018-07-03T04:10:08.333Z,75.24
2018-07-03T04:11:08.274Z,75.52
2018-07-03T04:13:01.248Z,75.62
2018-07-03T04:14:01.194Z,75.81
2018-07-03T04:15:54.162Z,75.43
2018-07-03T04:16:54.110Z,75.62
2018-07-03T04:18:47.030Z,75.34
2018-07-03T04:19:46.963Z,75.91
2018-07-03T04:21:40.938Z,75.24
2018-07-03T04:22:40.903Z,75.91
2018-07-03T04:24:33.871Z,75.52
2018-07-03T04:25:33.858Z,75.62
2018-07-03T04:27:26.644Z,75.62
2018-07-03T04:28:26.593Z,75.81
2018-07-03T04:30:19.440Z,75.81
2018-07-03T04:31:19.380Z,75.52
2018-07-03T04:33:12.329Z,75.43
2018-07-03T04:34:12.299Z,75.34
2018-07-03T04:36:05.126Z,75.62
2018-07-03T04:37:05.081Z,75.71
2018-07-03T04:38:58.055Z,76.00
2018-07-03T04:39:58.024Z,75.43
2018-07-03T04:41:50.844Z,76.00
2018-07-03T04:42:50.791Z,75.71
2018-07-03T04:44:43.774Z,75.52
2018-07-03T04:45:43.709Z,75.81
2018-07-03T04:47:36.722Z,76.20
2018-07-03T04:48:36.679Z,76.39
2018-07-03T04:50:29.698Z,76.20
2018-07-03T04:51:29.646Z,76.29
2018-07-03T04:53:22.457Z,76.10
2018-07-03T04:54:22.417Z,76.29
2018-07-03T04:56:15.384Z,76.77
2018-07-03T04:57:15.335Z,76.86
2018-07-03T04:59:08.291Z,77.06
2018-07-03T05:00:08.254Z,76.86
2018-07-03T05:02:01.080Z,76.39
2018-07-03T05:03:01.035Z,76.67
2018-07-03T05:04:54.028Z,76.39
2018-07-03T05:05:53.953Z,76.67
2018-07-03T05:07:46.955Z,75.62
2018-07-03T05:08:46.892Z,75.91
2018-07-03T05:10:39.837Z,76.23
2018-07-03T05:11:39.807Z,76.04
2018-07-03T05:13:32.960Z,76.23
2018-07-03T05:14:32.878Z,76.42
2018-07-03T05:16:25.855Z,76.33
2018-07-03T05:17:25.808Z,76.33
2018-07-03T05:19:18.772Z,76.33
2018-07-03T05:20:18.747Z,75.37
2018-07-03T05:22:11.836Z,75.56
2018-07-03T05:23:11.738Z,75.47
2018-07-03T05:25:04.693Z,76.33
2018-07-03T05:26:04.658Z,76.65
2018-07-03T05:27:57.642Z,76.65
2018-07-03T05:28:57.572Z,76.65
2018-07-03T05:30:50.631Z,76.84
2018-07-03T05:31:50.598Z,76.94
2018-07-03T05:33:43.582Z,76.84
2018-07-03T05:34:43.528Z,76.84
2018-07-03T05:36:36.482Z,76.84
2018-07-03T05:37:36.438Z,77.42
2018-07-03T05:39:29.627Z,76.75
2018-07-03T05:40:29.581Z,76.56
2018-07-03T05:42:22.614Z,75.89
2018-07-03T05:43:22.568Z,74.93
2018-07-03T05:45:15.697Z,75.22
2018-07-03T05:46:15.630Z,74.77
2018-07-03T05:48:08.613Z,74.87
2018-07-03T05:49:08.557Z,74.87
2018-07-03T05:51:01.373Z,75.16
2018-07-03T05:52:01.615Z,74.97
2018-07-03T05:53:54.504Z,74.58
2018-07-03T05:54:54.423Z,74.01
2018-07-03T05:56:47.398Z,73.82
2018-07-03T05:57:47.349Z,74.30
2018-07-03T05:59:40.330Z,74.11
2018-07-03T06:00:40.274Z,73.95
2018-07-03T06:02:33.443Z,74.15
2018-07-03T06:03:33.344Z,73.95
2018-07-03T06:05:26.335Z,73.66
2018-07-03T06:06:26.283Z,73.76
2018-07-03T06:08:19.240Z,73.86
2018-07-03T06:09:19.295Z,73.19
2018-07-03T06:11:12.146Z,73.57
2018-07-03T06:12:12.089Z,73.13
2018-07-03T06:14:05.071Z,72.64
2018-07-03T06:15:05.019Z,72.55
2018-07-03T06:16:57.999Z,72.27
2018-07-03T06:17:58.015Z,72.27
2018-07-03T06:19:51.170Z,71.69
2018-07-03T06:20:51.084Z,70.57
2018-07-03T06:22:44.107Z,70.67
2018-07-03T06:23:44.045Z,70.96
2018-07-03T06:25:37.042Z,70.38
2018-07-03T06:26:36.972Z,70.00
2018-07-03T06:28:29.801Z,69.04
2018-07-03T06:29:29.766Z,68.56
2018-07-03T06:31:22.760Z,68.30
2018-07-03T06:32:22.700Z,68.40
2018-07-03T06:34:15.705Z,68.21
2018-07-03T06:35:15.665Z,68.59
2018-07-03T06:37:08.891Z,68.40
2018-07-03T06:38:08.746Z,68.50
2018-07-03T06:40:01.708Z,68.30
2018-07-03T06:41:01.670Z,68.50
2018-07-03T06:42:54.667Z,67.96
2018-07-03T06:43:54.594Z,67.47
2018-07-03T06:45:47.451Z,67.38
2018-07-03T06:46:47.397Z,67.47
2018-07-03T06:48:40.393Z,67.76
2018-07-03T06:49:40.350Z,67.38
2018-07-03T06:51:33.190Z,66.74
2018-07-03T06:52:33.134Z,66.46
2018-07-03T06:54:26.104Z,65.59
2018-07-03T06:55:26.116Z,65.59
2018-07-03T06:57:19.221Z,66.07
2018-07-03T06:58:19.176Z,66.55
2018-07-03T07:00:11.995Z,65.88
2018-07-03T07:01:11.960Z,65.11
2018-07-03T07:03:04.945Z,63.89
2018-07-03T07:04:04.886Z,63.89
2018-07-03T07:05:58.111Z,63.79
2018-07-03T07:06:58.067Z,63.89
2018-07-03T07:08:51.173Z,61.71
2018-07-03T07:09:51.092Z,62.48
2018-07-03T07:11:43.849Z,61.14
2018-07-03T07:12:43.792Z,61.81
2018-07-03T07:14:36.631Z,59.99
2018-07-03T07:15:36.578Z,60.08
2018-07-03T07:17:29.595Z,60.30
2018-07-03T07:18:29.533Z,58.86
2018-07-03T07:20:22.498Z,58.28
2018-07-03T07:21:22.457Z,58.22
2018-07-03T07:23:15.483Z,58.40
2018-07-03T07:24:15.422Z,58.89
2018-07-03T07:26:08.387Z,59.37
2018-07-03T07:27:08.350Z,57.15
2018-07-03T07:29:01.327Z,54.36
2018-07-03T07:30:01.294Z,53.72
2018-07-03T07:31:54.112Z,54.39
2018-07-03T07:32:54.069Z,53.81
2018-07-03T07:34:47.277Z,53.14
2018-07-03T07:35:47.149Z,53.14
2018-07-03T07:37:40.119Z,52.40
2018-07-03T07:38:40.082Z,50.66
2018-07-03T07:40:33.068Z,49.32
2018-07-03T07:41:33.032Z,49.22
2018-07-03T07:43:25.843Z,50.18
2018-07-03T07:44:25.828Z,50.57
2018-07-03T07:46:18.858Z,50.88
2018-07-03T07:47:18.754Z,51.46
2018-07-03T07:49:11.724Z,49.43
2018-07-03T07:50:11.688Z,48.86
2018-07-03T07:52:04.530Z,49.05
2018-07-03T07:53:04.477Z,48.76
2018-07-03T07:54:57.421Z,48.38
2018-07-03T07:55:57.364Z,47.89
2018-07-03T07:57:50.362Z,46.86
2018-07-03T07:58:50.309Z,47.82
2018-07-03T08:00:43.274Z,47.92
2018-07-03T08:01:43.260Z,47.05
2018-07-03T08:03:36.444Z,47.92
2018-07-03T08:04:36.338Z,46.01
2018-07-03T08:06:29.359Z,46.88
2018-07-03T08:07:29.304Z,46.20
2018-07-03T08:09:22.268Z,45.62
2018-07-03T08:10:22.244Z,45.53
2018-07-03T08:12:15.130Z,45.04
2018-07-03T08:13:15.124Z,43.14
2018-07-03T08:15:08.093Z,42.94
2018-07-03T08:16:08.021Z,42.94
2018-07-03T08:18:01.030Z,43.52
2018-07-03T08:19:01.033Z,44.39
2018-07-03T08:20:54.224Z,43.14
2018-07-03T08:21:54.065Z,43.93
2018-07-03T08:23:47.044Z,41.81
2018-07-03T08:24:47.015Z,41.52
2018-07-03T08:26:40.049Z,40.26
2018-07-03T08:27:39.956Z,39.51
2018-07-03T08:29:32.777Z,39.51
2018-07-03T08:30:32.749Z,39.61
2018-07-03T08:32:25.761Z,40.28
2018-07-03T08:33:25.705Z,40.47
2018-07-03T08:35:18.684Z,39.70
2018-07-03T08:36:18.640Z,39.61
2018-07-03T08:38:11.879Z,40.38
2018-07-03T08:39:11.715Z,39.14
2018-07-03T08:41:04.563Z,39.72
2018-07-03T08:42:04.536Z,40.20
2018-07-03T08:43:57.529Z,39.72
2018-07-03T08:44:57.479Z,40.59
2018-07-03T08:46:50.720Z,39.72
2018-07-03T08:47:50.576Z,40.50
2018-07-03T08:49:43.570Z,38.76
2018-07-03T08:50:43.527Z,38.00
2018-07-03T08:52:36.636Z,40.42
2018-07-03T08:53:36.619Z,40.32
2018-07-03T08:55:29.596Z,40.52
2018-07-03T08:56:29.549Z,40.73
2018-07-03T08:58:23.534Z,40.63
2018-07-03T08:59:23.499Z,40.32
2018-07-03T09:01:16.520Z,40.15
2018-07-03T09:02:16.475Z,38.99
2018-07-03T09:04:09.447Z,38.31
2018-07-03T09:05:09.432Z,38.21
2018-07-03T09:07:03.431Z,38.12
2018-07-03T09:08:03.432Z,39.76
2018-07-03T09:09:56.620Z,39.01
2018-07-03T09:10:56.459Z,38.70
2018-07-03T09:12:49.446Z,37.07
2018-07-03T09:13:49.426Z,37.46
2018-07-03T09:15:42.415Z,37.94
2018-07-03T09:16:42.356Z,36.88
2018-07-03T09:18:35.290Z,36.98
2018-07-03T09:19:35.283Z,37.65
2018-07-03T09:21:28.263Z,36.70
2018-07-03T09:22:28.213Z,36.41
2018-07-03T09:24:21.191Z,38.64
2018-07-03T09:25:21.167Z,38.25
2018-07-03T09:27:14.302Z,36.70
2018-07-03T09:28:14.246Z,35.73
2018-07-03T09:30:07.090Z,36.41
2018-07-03T09:31:07.050Z,35.93
2018-07-03T09:33:00.025Z,37.11
2018-07-03T09:33:59.987Z,37.49
2018-07-03T09:35:53.181Z,38.95
2018-07-03T09:36:53.082Z,39.82
2018-07-03T09:38:46.063Z,35.56
2018-07-03T09:39:46.029Z,36.25
2018-07-03T09:41:39.037Z,36.83
2018-07-03T09:42:38.997Z,35.77
2018-07-03T09:44:31.887Z,35.28
2018-07-03T09:45:31.862Z,36.25
2018-07-03T09:47:24.847Z,37.13
2018-07-03T09:48:24.808Z,36.83
2018-07-03T09:50:17.799Z,35.30
2018-07-03T09:51:17.755Z,33.17
2018-07-03T09:53:10.923Z,34.25
2018-07-03T09:54:10.848Z,34.44
2018-07-03T09:56:03.866Z,32.21
2018-07-03T09:57:03.853Z,32.70
2018-07-03T09:58:56.877Z,30.38
2018-07-03T09:59:56.813Z,31.84
2018-07-03T10:01:49.772Z,32.32
2018-07-03T10:02:49.622Z,33.49
2018-07-03T10:04:42.613Z,34.48
2018-07-03T10:05:42.599Z,32.64
2018-07-03T10:07:35.603Z,31.40
2018-07-03T10:08:35.543Z,31.32
2018-07-03T10:10:28.419Z,25.99
2018-07-03T10:11:28.389Z,23.77
2018-07-03T10:13:21.421Z,23.51
2018-07-03T10:14:21.384Z,23.43
2018-07-03T10:16:14.384Z,23.64
2018-07-03T10:17:14.334Z,22.17
2018-07-03T10:19:07.406Z,21.49
2018-07-03T10:20:07.274Z,21.31
2018-07-03T10:22:00.130Z,20.76
2018-07-03T10:23:00.091Z,17.72
2018-07-03T10:24:53.094Z,18.13
2018-07-03T10:25:53.077Z,18.52
2018-07-03T10:27:46.249Z,16.69
2018-07-03T10:28:46.184Z,15.30
2018-07-03T10:30:39.186Z,16.68
2018-07-03T10:31:39.178Z,16.69
2018-07-03T10:33:32.169Z,16.02
2018-07-03T10:34:32.134Z,15.44
2018-07-03T10:36:25.023Z,14.57
2018-07-03T10:37:25.006Z,14.48
2018-07-03T10:39:18.034Z,13.11
2018-07-03T10:40:17.994Z,13.21
2018-07-03T10:42:10.990Z,13.53
2018-07-03T10:43:10.974Z,14.12
2018-07-03T10:45:04.070Z,12.05
2018-07-03T10:46:04.045Z,12.55
2018-07-03T10:47:57.031Z,11.66
2018-07-03T10:48:57.022Z,10.88
2018-07-03T10:50:49.881Z,10.86
2018-07-03T10:51:49.857Z,10.87
2018-07-03T10:53:42.748Z,11.57
2018-07-03T10:54:42.732Z,11.67
2018-07-03T10:56:35.756Z,10.98
2018-07-03T10:57:35.733Z,9.69
2018-07-03T10:59:28.766Z,10.89
2018-07-03T11:00:28.731Z,9.49
2018-07-03T11:02:21.738Z,10.28
2018-07-03T11:03:21.723Z,10.68
2018-07-03T11:05:14.732Z,10.78
2018-07-03T11:06:14.694Z,12.17
2018-07-03T11:08:07.960Z,9.99
2018-07-03T11:09:07.817Z,11.17
2018-07-03T11:11:00.818Z,12.08
2018-07-03T11:12:00.811Z,10.19
2018-07-03T11:13:53.902Z,12.55
2018-07-03T11:14:53.787Z,12.56
2018-07-03T11:16:46.863Z,10.10
2018-07-03T11:17:46.826Z,9.01
2018-07-03T11:19:39.914Z,9.78
2018-07-03T11:20:39.822Z,9.87
2018-07-03T11:22:33.040Z,12.34
2018-07-03T11:23:32.952Z,11.56
2018-07-03T11:25:26.006Z,12.68
2018-07-03T11:26:25.938Z,10.90
2018-07-03T11:28:18.954Z,10.51
2018-07-03T11:29:18.937Z,10.91
2018-07-03T11:31:11.813Z,9.22
2018-07-03T11:32:11.782Z,9.12
2018-07-03T11:34:04.777Z,10.12
2018-07-03T11:35:04.754Z,9.32
2018-07-03T11:36:57.783Z,9.71
2018-07-03T11:37:57.748Z,10.21
2018-07-03T11:39:50.797Z,10.02
2018-07-03T11:40:50.787Z,9.33
2018-07-03T11:42:43.814Z,8.24
2018-07-03T11:43:43.780Z,7.74
2018-07-03T11:45:36.635Z,8.43
2018-07-03T11:46:36.669Z,8.73
2018-07-03T11:48:29.510Z,8.23
2018-07-03T11:49:29.442Z,8.64
2018-07-03T11:51:22.296Z,7.93
2018-07-03T11:52:22.279Z,8.03
2018-07-03T11:54:15.308Z,8.13
2018-07-03T11:55:15.273Z,8.73
2018-07-03T11:57:08.482Z,8.63
2018-07-03T11:58:08.404Z,8.73
2018-07-03T12:00:01.403Z,8.43
2018-07-03T12:01:01.382Z,8.12
2018-07-03T12:02:54.408Z,8.81
2018-07-03T12:03:54.376Z,8.71
2018-07-03T12:05:47.388Z,8.81
2018-07-03T12:06:47.378Z,8.70
2018-07-03T12:08:40.380Z,9.40
2018-07-03T12:09:40.377Z,9.31
2018-07-03T12:11:33.212Z,9.21
2018-07-03T12:12:33.202Z,8.81
2018-07-03T12:14:26.239Z,9.21
2018-07-03T12:15:26.214Z,8.90
2018-07-03T12:17:19.229Z,9.89
2018-07-03T12:18:19.214Z,10.50
2018-07-03T12:20:12.428Z,9.30
2018-07-03T12:21:12.338Z,9.59
2018-07-03T12:23:05.368Z,9.79
2018-07-03T12:24:05.366Z,9.89
2018-07-03T12:25:58.572Z,10.00
2018-07-03T12:26:58.520Z,9.19
2018-07-03T12:28:51.591Z,10.18
2018-07-03T12:29:51.486Z,10.08
2018-07-03T12:31:44.357Z,9.30
2018-07-03T12:32:44.359Z,9.79
2018-07-03T12:34:37.534Z,9.41
2018-07-03T12:35:37.462Z,9.81
2018-07-03T12:37:30.476Z,7.83
2018-07-03T12:38:30.464Z,8.12
2018-07-03T12:40:23.641Z,9.22
2018-07-03T12:41:23.592Z,8.44
2018-07-03T12:43:16.616Z,8.14
2018-07-03T12:44:16.596Z,9.23
2018-07-03T12:46:09.831Z,8.54
2018-07-03T12:47:09.706Z,8.84
2018-07-03T12:49:02.750Z,8.04
2018-07-03T12:50:02.726Z,7.25
2018-07-03T12:51:55.591Z,7.64
2018-07-03T12:52:55.566Z,7.64
2018-07-03T12:54:48.782Z,7.54
2018-07-03T12:55:48.700Z,7.93
2018-07-03T12:57:41.712Z,7.84
2018-07-03T12:58:41.692Z,8.15
2018-07-03T13:00:34.716Z,7.25
2018-07-03T13:01:34.684Z,6.85
2018-07-03T13:03:27.676Z,6.95
2018-07-03T13:04:27.672Z,8.15
2018-07-03T13:06:20.692Z,6.66
2018-07-03T13:07:20.673Z,6.16
2018-07-03T13:09:13.537Z,6.07
2018-07-03T13:10:13.520Z,7.43
2018-07-03T13:12:06.549Z,7.05
2018-07-03T13:13:06.524Z,6.55
2018-07-03T13:14:59.376Z,8.20
2018-07-03T13:15:59.361Z,8.11
2018-07-03T13:17:52.381Z,8.59
2018-07-03T13:18:52.378Z,8.59
2018-07-03T13:20:45.383Z,10.08
2018-07-03T13:21:45.367Z,8.79
2018-07-03T13:23:38.371Z,8.80
2018-07-03T13:24:38.351Z,9.28
2018-07-03T13:26:31.551Z,8.31
2018-07-03T13:27:31.482Z,8.40
2018-07-03T13:29:24.522Z,8.01
2018-07-03T13:30:24.506Z,8.71
2018-07-03T13:32:17.528Z,8.51
2018-07-03T13:33:17.497Z,8.51
2018-07-03T13:35:10.504Z,9.52
2018-07-03T13:36:10.496Z,8.72
2018-07-03T13:38:03.517Z,8.23
2018-07-03T13:39:03.523Z,9.32
2018-07-03T13:40:56.337Z,7.74
2018-07-03T13:41:56.304Z,8.34
2018-07-03T13:43:49.368Z,7.54
2018-07-03T13:44:49.351Z,7.24
2018-07-03T13:46:42.377Z,7.54
2018-07-03T13:47:42.344Z,7.04
2018-07-03T13:49:35.556Z,7.44
2018-07-03T13:50:35.502Z,7.54
2018-07-03T13:52:28.514Z,6.74
2018-07-03T13:53:28.509Z,7.72
2018-07-03T13:55:21.372Z,8.31
2018-07-03T13:56:21.317Z,7.51
2018-07-03T13:58:14.183Z,7.71
2018-07-03T13:59:14.149Z,8.31
2018-07-03T14:01:07.023Z,7.91
2018-07-03T14:02:06.978Z,8.31
2018-07-03T14:03:59.988Z,7.92
2018-07-03T14:04:59.968Z,7.12
2018-07-03T14:06:53.079Z,7.82
2018-07-03T14:07:53.053Z,7.23
2018-07-03T14:09:46.074Z,7.23
2018-07-03T14:10:46.019Z,7.53
2018-07-03T14:12:39.061Z,7.93
2018-07-03T14:13:38.997Z,6.64
2018-07-03T14:15:32.060Z,7.23
2018-07-03T14:16:31.996Z,7.51
2018-07-03T14:18:25.028Z,8.50
2018-07-03T14:19:24.972Z,8.01
2018-07-03T14:21:17.981Z,8.91
2018-07-03T14:22:17.958Z,7.92
2018-07-03T14:24:10.845Z,8.92
2018-07-03T14:25:10.805Z,8.12
2018-07-03T14:27:03.815Z,8.33
2018-07-03T14:28:03.795Z,7.04
2018-07-03T14:29:56.809Z,7.73
2018-07-03T14:30:56.839Z,7.62
2018-07-03T14:32:49.848Z,8.11
2018-07-03T14:33:49.836Z,8.21
2018-07-03T14:35:42.674Z,8.61
2018-07-03T14:36:42.644Z,8.81
2018-07-03T14:38:35.673Z,8.22
2018-07-03T14:39:35.628Z,8.62
2018-07-03T14:41:28.463Z,7.63
2018-07-03T14:42:28.449Z,8.72
2018-07-03T14:44:21.474Z,8.51
2018-07-03T14:45:21.429Z,8.71
2018-07-03T14:47:14.430Z,8.80
2018-07-03T14:48:14.405Z,9.38
2018-07-03T14:50:07.276Z,9.38
2018-07-03T14:51:07.247Z,9.18
2018-07-03T14:53:00.261Z,9.88
2018-07-03T14:54:00.245Z,9.18
2018-07-03T14:55:53.271Z,9.88
2018-07-03T14:56:53.241Z,9.28
2018-07-03T14:58:46.402Z,8.89
2018-07-03T14:59:46.362Z,9.38
2018-07-03T15:01:39.387Z,9.97
2018-07-03T15:02:39.350Z,9.97
2018-07-03T15:04:32.580Z,10.08
2018-07-03T15:05:32.460Z,9.29
2018-07-03T15:07:25.484Z,9.69
2018-07-03T15:08:25.466Z,8.31
2018-07-03T15:10:18.486Z,8.31
2018-07-03T15:11:18.425Z,8.99
2018-07-03T15:13:11.291Z,9.58
2018-07-03T15:14:11.283Z,8.98
2018-07-03T15:16:04.298Z,9.38
2018-07-03T15:17:04.262Z,9.19
2018-07-03T15:18:57.251Z,8.79
2018-07-03T15:19:57.228Z,8.69
2018-07-03T15:21:50.172Z,9.98
2018-07-03T15:22:50.136Z,8.70
2018-07-03T15:24:43.226Z,8.59
2018-07-03T15:25:43.208Z,9.10
2018-07-03T15:27:36.212Z,8.11
2018-07-03T15:28:36.170Z,9.41
2018-07-03T15:30:29.014Z,8.61
2018-07-03T15:31:28.997Z,9.41
2018-07-03T15:33:22.021Z,8.61
2018-07-03T15:34:22.019Z,8.80
2018-07-03T15:36:14.998Z,8.71
2018-07-03T15:37:14.966Z,8.22
2018-07-03T15:39:07.945Z,7.92
2018-07-03T15:40:07.863Z,8.31
2018-07-03T15:42:00.862Z,8.20
2018-07-03T15:43:00.848Z,8.60
2018-07-03T15:44:53.715Z,9.30
2018-07-03T15:45:53.667Z,8.70
2018-07-03T15:47:47.022Z,8.50
2018-07-03T15:48:46.783Z,8.79
2018-07-03T15:50:39.808Z,9.67
2018-07-03T15:51:39.797Z,9.28
2018-07-03T15:53:32.963Z,10.16
2018-07-03T15:54:32.922Z,9.76
2018-07-03T15:56:25.900Z,10.55
2018-07-03T15:57:25.879Z,10.25
2018-07-03T15:59:18.895Z,10.16
2018-07-03T16:00:18.852Z,9.96
2018-07-03T16:02:11.789Z,9.85
2018-07-03T16:03:11.779Z,10.14
2018-07-03T16:05:04.775Z,11.05
2018-07-03T16:06:04.747Z,11.15
2018-07-03T16:07:57.748Z,9.38
2018-07-03T16:08:57.725Z,9.28
2018-07-03T16:10:50.599Z,9.38
2018-07-03T16:11:50.555Z,9.88
2018-07-03T16:13:43.560Z,9.28
2018-07-03T16:14:43.539Z,9.88
2018-07-03T16:16:36.539Z,10.06
2018-07-03T16:17:36.508Z,10.06
2018-07-03T16:19:29.692Z,9.95
2018-07-03T16:20:29.648Z,10.24
2018-07-03T16:22:22.655Z,10.24
2018-07-03T16:23:22.740Z,10.74
2018-07-03T16:25:15.984Z,9.86
2018-07-03T16:26:15.759Z,9.76
2018-07-03T16:28:08.755Z,10.05
2018-07-03T16:29:08.724Z,10.05
2018-07-03T16:31:01.746Z,10.74
2018-07-03T16:32:01.700Z,11.04
2018-07-03T16:33:54.613Z,11.13
2018-07-03T16:34:54.587Z,10.94
2018-07-03T16:36:47.612Z,10.05
2018-07-03T16:37:47.560Z,10.36
2018-07-03T16:39:40.584Z,10.45
2018-07-03T16:40:40.536Z,10.35
2018-07-03T16:42:33.382Z,10.85
2018-07-03T16:43:33.364Z,10.85
2018-07-03T16:45:26.473Z,10.85
2018-07-03T16:46:26.337Z,10.95
2018-07-03T16:48:19.346Z,10.46
2018-07-03T16:49:19.325Z,10.75
2018-07-03T16:51:12.192Z,10.36
2018-07-03T16:52:12.154Z,11.05
2018-07-03T16:54:05.164Z,10.65
2018-07-03T16:55:05.145Z,10.75
2018-07-03T16:56:58.157Z,11.05
2018-07-03T16:57:58.116Z,11.73
2018-07-03T16:59:51.296Z,12.21
2018-07-03T17:00:51.220Z,12.41
2018-07-03T17:02:44.250Z,11.82
2018-07-03T17:03:44.216Z,11.33
2018-07-03T17:05:37.250Z,12.32
2018-07-03T17:06:37.201Z,12.32
2018-07-03T17:08:30.189Z,12.10
2018-07-03T17:09:30.222Z,12.68
2018-07-03T17:11:24.183Z,13.45
2018-07-03T17:12:24.136Z,13.06
2018-07-03T17:14:17.351Z,13.55
2018-07-03T17:15:17.260Z,13.55
2018-07-03T17:17:10.282Z,15.42
2018-07-03T17:18:10.234Z,13.54
2018-07-03T17:20:03.231Z,14.53
2018-07-03T17:21:03.204Z,13.45
2018-07-03T17:22:56.057Z,14.22
2018-07-03T17:23:56.018Z,14.22
2018-07-03T17:25:48.997Z,15.19
2018-07-03T17:26:48.986Z,14.40
2018-07-03T17:28:41.997Z,15.87
2018-07-03T17:29:41.957Z,15.18
2018-07-03T17:31:35.126Z,15.85
2018-07-03T17:32:34.956Z,16.14
2018-07-03T17:34:27.969Z,17.41
2018-07-03T17:35:27.964Z,17.71
2018-07-03T17:37:20.782Z,16.73
2018-07-03T17:38:20.743Z,16.63
2018-07-03T17:40:13.887Z,16.52
2018-07-03T17:41:13.851Z,17.50
2018-07-03T17:43:06.863Z,17.21
2018-07-03T17:44:06.844Z,16.61
2018-07-03T17:45:59.803Z,16.82
2018-07-03T17:46:59.790Z,17.11
2018-07-03T17:48:52.641Z,16.52
2018-07-03T17:49:52.594Z,17.41
2018-07-03T17:51:45.598Z,19.47
2018-07-03T17:52:45.554Z,20.06
2018-07-03T17:54:38.564Z,17.12
2018-07-03T17:55:38.537Z,17.21
2018-07-03T17:57:31.371Z,16.73
2018-07-03T17:58:31.321Z,16.44
2018-07-03T18:00:24.378Z,16.72
2018-07-03T18:01:24.338Z,16.72
2018-07-03T18:03:17.337Z,17.40
2018-07-03T18:04:17.314Z,18.77
2018-07-03T18:06:10.489Z,16.71
2018-07-03T18:07:10.408Z,18.07
2018-07-03T18:09:03.250Z,16.90
2018-07-03T18:10:03.227Z,17.88
2018-07-03T18:11:56.224Z,18.46
2018-07-03T18:12:56.187Z,18.95
2018-07-03T18:14:49.398Z,18.37
2018-07-03T18:15:49.312Z,17.68
2018-07-03T18:17:42.309Z,17.48
2018-07-03T18:18:42.285Z,18.46
2018-07-03T18:20:35.302Z,18.26
2018-07-03T18:21:35.253Z,18.16
2018-07-03T18:23:28.069Z,18.74
2018-07-03T18:24:28.050Z,18.05
2018-07-03T18:26:21.034Z,18.25
2018-07-03T18:27:21.042Z,19.12
2018-07-03T18:29:13.998Z,19.02
2018-07-03T18:30:13.935Z,19.12
2018-07-03T18:32:06.799Z,21.17
2018-07-03T18:33:06.775Z,21.56
2018-07-03T18:34:59.754Z,20.97
2018-07-03T18:35:59.689Z,21.85
2018-07-03T18:37:52.670Z,23.30
2018-07-03T18:38:52.689Z,22.52
2018-07-03T18:40:45.651Z,23.21
2018-07-03T18:41:45.585Z,23.40